createdAt,value
2019-03-12T00:03:02.317Z,4.44
2019-03-12T00:13:02.962Z,4.41
2019-03-12T00:23:03.776Z,4.10
2019-03-12T00:33:04.558Z,4.13
2019-03-12T00:43:05.344Z,4.43
2019-03-12T00:53:06.099Z,4.18
2019-03-12T01:03:06.897Z,3.75
2019-03-12T01:13:12.963Z,3.18
2019-03-12T01:23:18.420Z,3.28
2019-03-12T01:33:19.133Z,3.71
2019-03-12T01:43:19.781Z,3.77
2019-03-12T01:53:20.459Z,3.79
2019-03-12T02:03:22.095Z,3.73
2019-03-12T02:13:22.817Z,3.47
2019-03-12T02:23:23.470Z,3.11
2019-03-12T02:33:24.158Z,3.20
2019-03-12T02:43:24.943Z,3.05
2019-03-12T02:53:25.686Z,2.38
2019-03-12T03:03:26.389Z,2.05
2019-03-12T03:13:27.148Z,1.98
2019-03-12T03:23:27.841Z,2.20
2019-03-12T03:33:28.511Z,1.92
2019-03-12T03:43:29.189Z,2.02
2019-03-12T03:53:29.962Z,2.60
2019-03-12T04:03:30.602Z,2.48
2019-03-12T04:13:31.292Z,2.37
2019-03-12T04:23:31.999Z,2.56
2019-03-12T04:33:51.353Z,2.76
2019-03-12T04:43:52.095Z,2.81
2019-03-12T04:53:52.896Z,2.77
2019-03-12T05:03:53.554Z,2.81
2019-03-12T05:14:23.159Z,2.87
2019-03-12T05:24:24.816Z,3.02
2019-03-12T05:34:25.523Z,3.04
2019-03-12T05:44:27.283Z,2.93
2019-03-12T05:54:30.342Z,3.10
2019-03-12T06:04:31.058Z,3.18
2019-03-12T06:14:32.766Z,3.42
2019-03-12T06:24:33.796Z,3.52
2019-03-12T06:34:35.399Z,3.45
2019-03-12T06:44:36.133Z,3.82
2019-03-12T06:54:38.735Z,4.13
2019-03-12T07:04:39.439Z,4.10
2019-03-12T07:14:40.195Z,4.82
2019-03-12T07:24:40.904Z,5.22
2019-03-12T07:34:41.689Z,4.74
2019-03-12T07:44:42.330Z,5.25
2019-03-12T07:54:43.089Z,5.28
2019-03-12T08:04:43.861Z,5.75
2019-03-12T08:14:44.603Z,6.24
2019-03-12T08:24:45.416Z,6.61
2019-03-12T08:34:46.230Z,5.81
2019-03-12T08:44:46.953Z,6.69
2019-03-12T08:54:54.229Z,7.30
2019-03-12T09:04:50.349Z,6.74
2019-03-12T09:14:51.231Z,6.85
2019-03-12T09:24:52.009Z,7.27
2019-03-12T09:34:52.845Z,7.29
2019-03-12T09:44:53.562Z,7.14
2019-03-12T09:55:01.268Z,7.41
2019-03-12T10:05:04.037Z,7.81
2019-03-12T10:15:06.693Z,7.61
2019-03-12T10:25:07.694Z,7.81
2019-03-12T10:35:08.628Z,8.30
2019-03-12T10:45:10.462Z,8.28
2019-03-12T10:55:13.331Z,8.21
2019-03-12T11:05:16.943Z,8.33
2019-03-12T11:15:18.577Z,8.31
2019-03-12T11:25:27.367Z,8.27
2019-03-12T11:35:21.865Z,8.15
2019-03-12T11:45:35.464Z,8.60
2019-03-12T11:55:25.296Z,8.09
2019-03-12T12:05:25.990Z,8.75
2019-03-12T12:15:26.644Z,9.46
2019-03-12T12:25:27.486Z,8.93
2019-03-12T12:35:29.400Z,8.60
2019-03-12T12:45:34.853Z,8.68
2019-03-12T12:55:35.570Z,9.36
2019-03-12T13:05:36.245Z,9.85
2019-03-12T13:15:37.103Z,9.25
2019-03-12T13:25:37.842Z,9.88
2019-03-12T13:35:38.590Z,9.39
2019-03-12T13:45:39.287Z,9.09
2019-03-12T13:55:39.985Z,9.75
2019-03-12T14:05:40.654Z,9.28
2019-03-12T14:15:41.869Z,9.40
2019-03-12T14:25:43.281Z,9.71
2019-03-12T14:35:51.274Z,10.49
2019-03-12T14:45:48.142Z,11.11
2019-03-12T15:06:04.741Z,9.89
2019-03-12T15:36:45.259Z,9.92
2019-03-12T15:46:44.757Z,9.62
2019-03-12T15:56:45.683Z,9.55
2019-03-12T16:06:46.586Z,9.29
2019-03-12T16:16:47.833Z,9.35
2019-03-12T16:26:48.528Z,9.30
2019-03-12T16:36:49.467Z,9.18
2019-03-12T16:46:50.220Z,8.87
2019-03-12T16:56:52.862Z,8.59
2019-03-12T17:06:56.819Z,8.54
2019-03-12T17:16:57.968Z,8.33
2019-03-12T17:26:59.114Z,8.31
2019-03-12T17:36:59.751Z,8.33
2019-03-12T17:47:00.635Z,8.34
2019-03-12T17:57:01.695Z,8.40
2019-03-12T18:07:02.547Z,8.39
2019-03-12T18:17:03.512Z,8.39
2019-03-12T18:27:21.719Z,8.31
2019-03-12T18:37:23.867Z,8.45
2019-03-12T18:47:24.880Z,8.47
2019-03-12T18:57:28.020Z,8.43
2019-03-12T19:07:28.919Z,8.50
2019-03-12T19:17:29.644Z,8.51
2019-03-12T19:27:30.488Z,8.47
2019-03-12T19:37:39.452Z,8.59
2019-03-12T19:47:40.366Z,8.60
2019-03-12T19:57:41.502Z,8.65
2019-03-12T20:07:42.125Z,8.80
2019-03-12T20:18:04.493Z,8.83
2019-03-12T20:28:31.803Z,8.81
2019-03-12T20:39:05.914Z,8.91
2019-03-12T20:49:33.243Z,8.93
2019-03-12T21:00:08.491Z,9.13
2019-03-12T21:10:29.343Z,9.12
2019-03-12T21:20:39.736Z,9.42
2019-03-12T21:30:43.827Z,9.67
2019-03-12T21:40:44.785Z,9.67
2019-03-12T21:50:45.572Z,9.81
2019-03-12T22:00:46.316Z,9.51
2019-03-12T22:10:47.029Z,9.86
2019-03-12T22:20:57.502Z,9.86
2019-03-12T22:30:59.856Z,9.79
2019-03-12T22:41:00.990Z,9.52
2019-03-12T22:51:01.758Z,8.95
2019-03-12T23:01:03.049Z,8.32
2019-03-12T23:11:03.729Z,7.81
2019-03-12T23:21:06.617Z,6.50
2019-03-12T23:31:07.357Z,5.95
2019-03-12T23:41:08.438Z,5.81
2019-03-12T23:51:09.125Z,5.77
